sensor_id;sensor_type;location;lat;lon;timestamp;pressure;altitude;pressure_sealevel;temperature;humidity
50854;BME280;44154;45.506;-122.806;2022-10-13T00:00:31;101055.44;;;26.07;36.59
50854;BME280;44154;45.506;-122.806;2022-10-13T00:03:01;101052.16;;;26.05;36.74
50854;BME280;44154;45.506;-122.806;2022-10-13T00:05:29;101058.81;;;26.14;36.36
50854;BME280;44154;45.506;-122.806;2022-10-13T00:07:56;101036.84;;;26.09;36.82
50854;BME280;44154;45.506;-122.806;2022-10-13T00:10:23;101044.91;;;26.21;36.70
50854;BME280;44154;45.506;-122.806;2022-10-13T00:12:50;101052.59;;;26.24;36.61
50854;BME280;44154;45.506;-122.806;2022-10-13T00:15:16;101054.81;;;26.27;36.86
50854;BME280;44154;45.506;-122.806;2022-10-13T00:17:43;101057.88;;;26.30;36.97
50854;BME280;44154;45.506;-122.806;2022-10-13T00:20:10;100978.44;;;25.86;37.04
50854;BME280;44154;45.506;-122.806;2022-10-13T00:22:36;100962.41;;;25.73;36.71
50854;BME280;44154;45.506;-122.806;2022-10-13T00:25:03;101012.25;;;26.19;36.77
50854;BME280;44154;45.506;-122.806;2022-10-13T00:27:30;101047.25;;;26.39;37.08
50854;BME280;44154;45.506;-122.806;2022-10-13T00:29:56;101056.03;;;26.41;37.09
50854;BME280;44154;45.506;-122.806;2022-10-13T00:32:22;101051.94;;;26.44;36.97
50854;BME280;44154;45.506;-122.806;2022-10-13T00:34:48;101055.25;;;26.46;37.30
50854;BME280;44154;45.506;-122.806;2022-10-13T00:37:14;101043.19;;;26.47;37.19
50854;BME280;44154;45.506;-122.806;2022-10-13T00:39:40;101050.06;;;26.49;37.47
50854;BME280;44154;45.506;-122.806;2022-10-13T00:42:11;101050.63;;;26.52;37.49
50854;BME280;44154;45.506;-122.806;2022-10-13T00:45:06;101057.78;;;26.53;37.16
50854;BME280;44154;45.506;-122.806;2022-10-13T00:47:40;101056.44;;;26.55;37.19
50854;BME280;44154;45.506;-122.806;2022-10-13T00:50:11;101014.78;;;26.31;37.02
50854;BME280;44154;45.506;-122.806;2022-10-13T00:52:40;101020.03;;;26.33;37.33
50854;BME280;44154;45.506;-122.806;2022-10-13T00:55:09;101059.75;;;26.57;37.25
50854;BME280;44154;45.506;-122.806;2022-10-13T00:57:40;101032.13;;;26.37;37.42
50854;BME280;44154;45.506;-122.806;2022-10-13T01:00:09;101053.69;;;26.55;37.30
50854;BME280;44154;45.506;-122.806;2022-10-13T01:02:36;101066.34;;;26.61;37.46
50854;BME280;44154;45.506;-122.806;2022-10-13T01:05:05;101062.53;;;26.62;37.80
50854;BME280;44154;45.506;-122.806;2022-10-13T01:07:33;101045.47;;;26.55;38.20
50854;BME280;44154;45.506;-122.806;2022-10-13T01:09:59;101028.38;;;26.48;38.84
50854;BME280;44154;45.506;-122.806;2022-10-13T01:12:58;101061.50;;;26.69;39.85
50854;BME280;44154;45.506;-122.806;2022-10-13T01:15:31;101062.38;;;26.74;40.92
50854;BME280;44154;45.506;-122.806;2022-10-13T01:18:19;101057.16;;;26.73;42.19
50854;BME280;44154;45.506;-122.806;2022-10-13T01:21:04;101060.50;;;26.80;42.53
50854;BME280;44154;45.506;-122.806;2022-10-13T01:28:55;101052.25;;;26.80;42.41
50854;BME280;44154;45.506;-122.806;2022-10-13T01:31:56;101056.69;;;26.86;42.12
50854;BME280;44154;45.506;-122.806;2022-10-13T01:37:20;101049.84;;;26.89;41.35
50854;BME280;44154;45.506;-122.806;2022-10-13T01:39:54;101056.16;;;26.89;41.25
50854;BME280;44154;45.506;-122.806;2022-10-13T01:42:29;101052.31;;;26.90;41.05
50854;BME280;44154;45.506;-122.806;2022-10-13T01:45:00;101056.16;;;26.89;40.52
50854;BME280;44154;45.506;-122.806;2022-10-13T01:47:29;101021.72;;;26.71;40.56
50854;BME280;44154;45.506;-122.806;2022-10-13T01:49:56;101047.91;;;26.89;40.55
50854;BME280;44154;45.506;-122.806;2022-10-13T01:52:29;101028.03;;;26.72;40.26
50854;BME280;44154;45.506;-122.806;2022-10-13T01:54:56;101059.47;;;26.91;40.22
50854;BME280;44154;45.506;-122.806;2022-10-13T01:57:37;101031.41;;;26.84;40.04
50854;BME280;44154;45.506;-122.806;2022-10-13T02:00:18;101060.28;;;26.92;39.73
50854;BME280;44154;45.506;-122.806;2022-10-13T02:08:38;101061.09;;;26.92;39.22
50854;BME280;44154;45.506;-122.806;2022-10-13T02:11:17;101040.47;;;26.85;39.25
50854;BME280;44154;45.506;-122.806;2022-10-13T02:13:59;101061.09;;;26.92;39.02
50854;BME280;44154;45.506;-122.806;2022-10-13T02:16:31;101060.03;;;26.93;39.00
50854;BME280;44154;45.506;-122.806;2022-10-13T02:19:01;101058.34;;;26.92;39.04
50854;BME280;44154;45.506;-122.806;2022-10-13T02:21:29;101041.81;;;26.77;38.91
50854;BME280;44154;45.506;-122.806;2022-10-13T02:23:56;101061.63;;;26.84;39.08
50854;BME280;44154;45.506;-122.806;2022-10-13T02:26:23;101049.53;;;26.85;38.75
50854;BME280;44154;45.506;-122.806;2022-10-13T02:28:50;101055.53;;;26.82;38.64
50854;BME280;44154;45.506;-122.806;2022-10-13T02:31:16;101065.50;;;26.88;38.66
50854;BME280;44154;45.506;-122.806;2022-10-13T02:33:42;101055.88;;;26.86;38.52
50854;BME280;44154;45.506;-122.806;2022-10-13T02:36:08;101000.94;;;26.48;38.79
50854;BME280;44154;45.506;-122.806;2022-10-13T02:38:35;100967.56;;;26.24;38.89
50854;BME280;44154;45.506;-122.806;2022-10-13T02:41:01;101064.91;;;26.86;38.77
50854;BME280;44154;45.506;-122.806;2022-10-13T02:43:28;101067.91;;;26.79;38.61
50854;BME280;44154;45.506;-122.806;2022-10-13T02:45:54;101051.13;;;26.76;38.84
50854;BME280;44154;45.506;-122.806;2022-10-13T02:48:20;101061.03;;;26.82;38.74
50854;BME280;44154;45.506;-122.806;2022-10-13T02:50:47;101071.47;;;26.80;38.56
50854;BME280;44154;45.506;-122.806;2022-10-13T02:53:13;101070.69;;;26.85;38.73
50854;BME280;44154;45.506;-122.806;2022-10-13T02:55:39;101074.78;;;26.82;38.38
50854;BME280;44154;45.506;-122.806;2022-10-13T02:58:05;101051.84;;;26.66;38.28
50854;BME280;44154;45.506;-122.806;2022-10-13T03:00:31;101035.00;;;26.52;38.52
50854;BME280;44154;45.506;-122.806;2022-10-13T03:02:58;101072.81;;;26.77;38.15
50854;BME280;44154;45.506;-122.806;2022-10-13T03:05:24;101087.97;;;26.85;38.33
50854;BME280;44154;45.506;-122.806;2022-10-13T03:07:50;101089.88;;;26.79;37.86
50854;BME280;44154;45.506;-122.806;2022-10-13T03:10:16;101071.97;;;26.72;37.82
50854;BME280;44154;45.506;-122.806;2022-10-13T03:12:42;101090.72;;;26.85;37.95
50854;BME280;44154;45.506;-122.806;2022-10-13T03:15:08;101058.69;;;26.63;38.25
50854;BME280;44154;45.506;-122.806;2022-10-13T03:17:35;101105.28;;;26.86;37.74
50854;BME280;44154;45.506;-122.806;2022-10-13T03:20:01;101100.63;;;26.86;37.84
50854;BME280;44154;45.506;-122.806;2022-10-13T03:22:29;101095.13;;;26.86;38.03
50854;BME280;44154;45.506;-122.806;2022-10-13T03:24:55;101093.47;;;26.85;37.81
50854;BME280;44154;45.506;-122.806;2022-10-13T03:27:21;101083.53;;;26.79;38.08
50854;BME280;44154;45.506;-122.806;2022-10-13T03:29:48;101090.69;;;26.80;37.71
50854;BME280;44154;45.506;-122.806;2022-10-13T03:32:14;100990.84;;;26.21;37.99
50854;BME280;44154;45.506;-122.806;2022-10-13T03:34:41;101081.88;;;26.78;37.71
50854;BME280;44154;45.506;-122.806;2022-10-13T03:37:07;101086.34;;;26.84;37.49
50854;BME280;44154;45.506;-122.806;2022-10-13T03:39:33;101041.88;;;26.55;37.48
50854;BME280;44154;45.506;-122.806;2022-10-13T03:41:59;101091.81;;;26.84;37.79
50854;BME280;44154;45.506;-122.806;2022-10-13T03:44:26;101100.34;;;26.82;37.82
50854;BME280;44154;45.506;-122.806;2022-10-13T03:46:52;101099.47;;;26.77;37.69
50854;BME280;44154;45.506;-122.806;2022-10-13T03:49:18;101110.47;;;26.82;37.65
50854;BME280;44154;45.506;-122.806;2022-10-13T03:51:44;101110.44;;;26.77;37.46
50854;BME280;44154;45.506;-122.806;2022-10-13T03:54:11;101096.88;;;26.65;37.32
50854;BME280;44154;45.506;-122.806;2022-10-13T03:56:38;101110.41;;;26.72;37.46
50854;BME280;44154;45.506;-122.806;2022-10-13T03:59:05;101115.69;;;26.78;37.32
50854;BME280;44154;45.506;-122.806;2022-10-13T04:01:33;101084.16;;;26.54;37.17
50854;BME280;44154;45.506;-122.806;2022-10-13T04:04:00;101101.88;;;26.68;37.37
50854;BME280;44154;45.506;-122.806;2022-10-13T04:06:29;101117.03;;;26.76;37.24
50854;BME280;44154;45.506;-122.806;2022-10-13T04:08:58;101104.25;;;26.64;37.17
50854;BME280;44154;45.506;-122.806;2022-10-13T04:11:24;101091.06;;;26.61;36.98
50854;BME280;44154;45.506;-122.806;2022-10-13T04:13:51;101112.88;;;26.73;37.13
50854;BME280;44154;45.506;-122.806;2022-10-13T04:16:21;101119.22;;;26.74;36.79
50854;BME280;44154;45.506;-122.806;2022-10-13T04:18:58;101120.28;;;26.73;36.88
50854;BME280;44154;45.506;-122.806;2022-10-13T04:21:24;101112.84;;;26.68;37.16
50854;BME280;44154;45.506;-122.806;2022-10-13T04:23:53;101062.59;;;26.35;37.59
50854;BME280;44154;45.506;-122.806;2022-10-13T04:26:23;101129.31;;;26.68;38.19
50854;BME280;44154;45.506;-122.806;2022-10-13T04:28:51;101123.56;;;26.70;37.46
50854;BME280;44154;45.506;-122.806;2022-10-13T04:31:17;101111.63;;;26.59;37.56
50854;BME280;44154;45.506;-122.806;2022-10-13T04:33:47;101131.81;;;26.70;37.12
50854;BME280;44154;45.506;-122.806;2022-10-13T04:36:14;101131.44;;;26.66;37.52
50854;BME280;44154;45.506;-122.806;2022-10-13T04:38:41;101131.81;;;26.70;37.45
50854;BME280;44154;45.506;-122.806;2022-10-13T04:41:08;101131.72;;;26.64;37.27
50854;BME280;44154;45.506;-122.806;2022-10-13T04:46:11;101113.50;;;26.53;37.37
50854;BME280;44154;45.506;-122.806;2022-10-13T04:51:13;101139.69;;;26.66;37.33
50854;BME280;44154;45.506;-122.806;2022-10-13T04:53:40;101137.22;;;26.64;37.06
50854;BME280;44154;45.506;-122.806;2022-10-13T04:56:10;101141.88;;;26.64;36.73
50854;BME280;44154;45.506;-122.806;2022-10-13T04:58:37;101141.03;;;26.63;36.69
50854;BME280;44154;45.506;-122.806;2022-10-13T05:01:06;101127.75;;;26.50;36.96
50854;BME280;44154;45.506;-122.806;2022-10-13T05:03:33;101134.44;;;26.59;36.85
50854;BME280;44154;45.506;-122.806;2022-10-13T05:06:00;101148.72;;;26.61;36.82
50854;BME280;44154;45.506;-122.806;2022-10-13T05:08:26;101132.69;;;26.48;36.85
50854;BME280;44154;45.506;-122.806;2022-10-13T05:13:21;101150.91;;;26.59;36.61
50854;BME280;44154;45.506;-122.806;2022-10-13T05:15:47;101145.41;;;26.59;36.69
50854;BME280;44154;45.506;-122.806;2022-10-13T05:18:13;101145.88;;;26.51;36.48
50854;BME280;44154;45.506;-122.806;2022-10-13T05:20:42;101144.47;;;26.48;36.74
50854;BME280;44154;45.506;-122.806;2022-10-13T05:23:08;101151.94;;;26.53;36.22
50854;BME280;44154;45.506;-122.806;2022-10-13T05:25:35;101161.03;;;26.59;36.49
50854;BME280;44154;45.506;-122.806;2022-10-13T05:28:06;101145.91;;;26.56;36.25
50854;BME280;44154;45.506;-122.806;2022-10-13T05:30:33;101107.75;;;26.27;36.62
50854;BME280;44154;45.506;-122.806;2022-10-13T05:32:59;101127.91;;;26.38;36.54
50854;BME280;44154;45.506;-122.806;2022-10-13T05:35:27;101148.63;;;26.51;36.39
50854;BME280;44154;45.506;-122.806;2022-10-13T05:37:53;101151.94;;;26.53;36.25
50854;BME280;44154;45.506;-122.806;2022-10-13T05:40:19;101153.03;;;26.52;36.19
50854;BME280;44154;45.506;-122.806;2022-10-13T05:42:48;101141.38;;;26.40;36.10
50854;BME280;44154;45.506;-122.806;2022-10-13T05:45:14;101156.28;;;26.49;36.15
50854;BME280;44154;45.506;-122.806;2022-10-13T05:47:41;101138.69;;;26.45;36.14
50854;BME280;44154;45.506;-122.806;2022-10-13T05:50:08;101148.53;;;26.41;36.46
50854;BME280;44154;45.506;-122.806;2022-10-13T05:52:34;101084.47;;;26.03;36.11
50854;BME280;44154;45.506;-122.806;2022-10-13T05:55:04;101156.53;;;26.47;36.46
50854;BME280;44154;45.506;-122.806;2022-10-13T05:57:36;101161.22;;;26.47;36.21
50854;BME280;44154;45.506;-122.806;2022-10-13T06:00:10;101164.22;;;26.45;36.37
50854;BME280;44154;45.506;-122.806;2022-10-13T06:05:18;101117.00;;;26.16;36.40
50854;BME280;44154;45.506;-122.806;2022-10-13T06:07:45;101171.31;;;26.41;36.39
50854;BME280;44154;45.506;-122.806;2022-10-13T06:10:13;101153.69;;;26.37;36.45
50854;BME280;44154;45.506;-122.806;2022-10-13T06:12:39;101178.13;;;26.39;36.03
50854;BME280;44154;45.506;-122.806;2022-10-13T06:15:06;101147.47;;;26.20;36.13
50854;BME280;44154;45.506;-122.806;2022-10-13T06:17:36;101174.81;;;26.37;35.95
50854;BME280;44154;45.506;-122.806;2022-10-13T06:20:03;101146.66;;;26.19;36.21
50854;BME280;44154;45.506;-122.806;2022-10-13T06:22:31;101169.59;;;26.35;36.21
50854;BME280;44154;45.506;-122.806;2022-10-13T06:24:58;101161.25;;;26.25;35.84
50854;BME280;44154;45.506;-122.806;2022-10-13T06:27:24;101138.88;;;26.11;36.12
50854;BME280;44154;45.506;-122.806;2022-10-13T06:29:50;101154.03;;;26.19;36.13
50854;BME280;44154;45.506;-122.806;2022-10-13T06:32:16;101149.28;;;26.09;36.30
50854;BME280;44154;45.506;-122.806;2022-10-13T06:34:42;101154.91;;;26.19;36.11
50854;BME280;44154;45.506;-122.806;2022-10-13T06:37:08;101162.28;;;26.19;36.14
50854;BME280;44154;45.506;-122.806;2022-10-13T06:39:35;101178.53;;;26.25;36.10
50854;BME280;44154;45.506;-122.806;2022-10-13T06:42:01;101158.00;;;26.06;35.82
50854;BME280;44154;45.506;-122.806;2022-10-13T06:44:27;101150.31;;;26.03;36.11
50854;BME280;44154;45.506;-122.806;2022-10-13T06:46:53;101158.34;;;26.09;36.02
50854;BME280;44154;45.506;-122.806;2022-10-13T06:49:19;101179.84;;;26.18;35.73
50854;BME280;44154;45.506;-122.806;2022-10-13T06:51:45;101176.25;;;26.17;35.74
50854;BME280;44154;45.506;-122.806;2022-10-13T06:54:11;101178.44;;;26.15;35.76
50854;BME280;44154;45.506;-122.806;2022-10-13T06:56:37;101177.28;;;26.11;36.09
50854;BME280;44154;45.506;-122.806;2022-10-13T06:59:04;101175.34;;;26.11;35.76
50854;BME280;44154;45.506;-122.806;2022-10-13T07:01:30;101117.38;;;25.80;35.85
50854;BME280;44154;45.506;-122.806;2022-10-13T07:03:56;101133.41;;;25.89;35.91
50854;BME280;44154;45.506;-122.806;2022-10-13T07:06:23;101169.84;;;26.06;35.76
50854;BME280;44154;45.506;-122.806;2022-10-13T07:08:49;101183.81;;;26.05;35.80
50854;BME280;44154;45.506;-122.806;2022-10-13T07:11:15;101176.66;;;26.04;36.18
50854;BME280;44154;45.506;-122.806;2022-10-13T07:13:43;101167.88;;;26.02;36.10
50854;BME280;44154;45.506;-122.806;2022-10-13T07:16:10;101168.19;;;25.88;37.56
50854;BME280;44154;45.506;-122.806;2022-10-13T07:18:36;101170.75;;;25.73;38.67
50854;BME280;44154;45.506;-122.806;2022-10-13T07:21:03;101173.56;;;25.78;38.13
50854;BME280;44154;45.506;-122.806;2022-10-13T07:23:31;101172.03;;;25.87;37.47
50854;BME280;44154;45.506;-122.806;2022-10-13T07:25:57;101159.47;;;25.91;36.87
50854;BME280;44154;45.506;-122.806;2022-10-13T07:28:24;101168.31;;;25.98;36.71
50854;BME280;44154;45.506;-122.806;2022-10-13T07:30:51;101154.56;;;25.93;36.23
50854;BME280;44154;45.506;-122.806;2022-10-13T07:33:19;101153.53;;;26.00;36.39
50854;BME280;44154;45.506;-122.806;2022-10-13T07:35:45;101152.34;;;25.90;36.28
50854;BME280;44154;45.506;-122.806;2022-10-13T07:38:11;101092.41;;;25.55;36.31
50854;BME280;44154;45.506;-122.806;2022-10-13T07:40:38;101135.69;;;25.75;36.26
50854;BME280;44154;45.506;-122.806;2022-10-13T07:43:04;101156.72;;;25.91;36.39
50854;BME280;44154;45.506;-122.806;2022-10-13T07:45:30;101153.94;;;25.86;36.06
50854;BME280;44154;45.506;-122.806;2022-10-13T07:47:56;101160.81;;;25.89;36.57
50854;BME280;44154;45.506;-122.806;2022-10-13T07:50:22;101160.88;;;25.72;37.36
50854;BME280;44154;45.506;-122.806;2022-10-13T07:52:48;101164.56;;;25.60;38.64
50854;BME280;44154;45.506;-122.806;2022-10-13T07:55:15;101165.59;;;25.54;39.37
50854;BME280;44154;45.506;-122.806;2022-10-13T07:57:41;101164.09;;;25.47;39.70
50854;BME280;44154;45.506;-122.806;2022-10-13T08:00:07;101140.28;;;25.47;39.18
50854;BME280;44154;45.506;-122.806;2022-10-13T08:02:34;101148.00;;;25.72;39.04
50854;BME280;44154;45.506;-122.806;2022-10-13T08:05:02;101159.47;;;25.91;38.44
50854;BME280;44154;45.506;-122.806;2022-10-13T08:07:28;101165.69;;;26.04;38.23
50854;BME280;44154;45.506;-122.806;2022-10-13T08:09:54;101163.84;;;26.09;37.76
50854;BME280;44154;45.506;-122.806;2022-10-13T08:12:20;101131.22;;;25.91;37.46
50854;BME280;44154;45.506;-122.806;2022-10-13T08:14:49;101174.03;;;26.14;37.53
50854;BME280;44154;45.506;-122.806;2022-10-13T08:17:16;101166.63;;;26.14;37.22
50854;BME280;44154;45.506;-122.806;2022-10-13T08:19:42;101175.16;;;26.18;37.65
50854;BME280;44154;45.506;-122.806;2022-10-13T08:22:09;101177.28;;;26.11;38.31
50854;BME280;44154;45.506;-122.806;2022-10-13T08:24:35;101083.66;;;25.36;38.60
50854;BME280;44154;45.506;-122.806;2022-10-13T08:27:02;101186.84;;;25.86;39.16
50854;BME280;44154;45.506;-122.806;2022-10-13T08:29:28;101182.28;;;25.75;39.33
50854;BME280;44154;45.506;-122.806;2022-10-13T08:31:54;101185.97;;;25.86;39.39
50854;BME280;44154;45.506;-122.806;2022-10-13T08:34:22;101181.66;;;25.90;40.00
50854;BME280;44154;45.506;-122.806;2022-10-13T08:36:49;101172.78;;;25.83;39.69
50854;BME280;44154;45.506;-122.806;2022-10-13T08:39:17;101184.47;;;25.95;40.03
50854;BME280;44154;45.506;-122.806;2022-10-13T08:41:43;101181.56;;;26.02;39.79
50854;BME280;44154;45.506;-122.806;2022-10-13T08:44:23;101183.47;;;26.01;40.90
50854;BME280;44154;45.506;-122.806;2022-10-13T08:49:17;101178.22;;;26.00;41.81
50854;BME280;44154;45.506;-122.806;2022-10-13T08:51:43;101179.91;;;26.01;42.97
50854;BME280;44154;45.506;-122.806;2022-10-13T08:54:14;101175.84;;;26.03;42.54
50854;BME280;44154;45.506;-122.806;2022-10-13T08:56:42;101179.00;;;26.17;41.38
50854;BME280;44154;45.506;-122.806;2022-10-13T08:59:13;101176.63;;;26.26;40.58
50854;BME280;44154;45.506;-122.806;2022-10-13T09:01:43;101157.63;;;26.19;39.94
50854;BME280;44154;45.506;-122.806;2022-10-13T09:04:31;101136.97;;;26.11;39.33
50854;BME280;44154;45.506;-122.806;2022-10-13T09:07:31;101175.13;;;26.40;38.84
50854;BME280;44154;45.506;-122.806;2022-10-13T09:09:59;101169.38;;;26.42;38.81
50854;BME280;44154;45.506;-122.806;2022-10-13T09:12:26;101163.25;;;26.35;38.76
50854;BME280;44154;45.506;-122.806;2022-10-13T09:15:07;101170.50;;;26.41;38.62
50854;BME280;44154;45.506;-122.806;2022-10-13T09:17:36;101173.22;;;26.41;38.52
50854;BME280;44154;45.506;-122.806;2022-10-13T09:22:37;101179.78;;;26.40;38.88
50854;BME280;44154;45.506;-122.806;2022-10-13T09:30:25;101162.59;;;26.22;40.39
50854;BME280;44154;45.506;-122.806;2022-10-13T09:33:18;101158.56;;;26.30;39.84
50854;BME280;44154;45.506;-122.806;2022-10-13T09:38:23;101157.31;;;26.43;38.63
50854;BME280;44154;45.506;-122.806;2022-10-13T09:41:03;101160.06;;;26.43;38.43
50854;BME280;44154;45.506;-122.806;2022-10-13T09:43:32;101158.72;;;26.45;38.50
50854;BME280;44154;45.506;-122.806;2022-10-13T09:46:00;101157.91;;;26.45;38.42
50854;BME280;44154;45.506;-122.806;2022-10-13T09:48:30;101156.25;;;26.44;38.28
50854;BME280;44154;45.506;-122.806;2022-10-13T09:50:58;101130.81;;;26.26;38.53
50854;BME280;44154;45.506;-122.806;2022-10-13T09:53:33;101118.09;;;26.15;38.63
50854;BME280;44154;45.506;-122.806;2022-10-13T09:59:02;101158.41;;;26.42;38.54
50854;BME280;44154;45.506;-122.806;2022-10-13T10:01:34;101157.28;;;26.38;39.50
50854;BME280;44154;45.506;-122.806;2022-10-13T10:04:05;101134.94;;;26.02;40.36
50854;BME280;44154;45.506;-122.806;2022-10-13T10:06:33;101154.38;;;26.22;40.16
50854;BME280;44154;45.506;-122.806;2022-10-13T10:11:47;101158.38;;;26.37;39.09
50854;BME280;44154;45.506;-122.806;2022-10-13T10:14:32;101152.91;;;26.42;39.02
50854;BME280;44154;45.506;-122.806;2022-10-13T10:17:21;101155.72;;;26.47;38.55
50854;BME280;44154;45.506;-122.806;2022-10-13T10:22:39;101161.53;;;26.51;38.46
50854;BME280;44154;45.506;-122.806;2022-10-13T10:27:55;101158.78;;;26.51;38.28
50854;BME280;44154;45.506;-122.806;2022-10-13T10:30:28;101156.84;;;26.51;38.05
50854;BME280;44154;45.506;-122.806;2022-10-13T10:33:03;101156.28;;;26.49;38.19
50854;BME280;44154;45.506;-122.806;2022-10-13T10:38:33;101170.78;;;26.44;38.65
50854;BME280;44154;45.506;-122.806;2022-10-13T10:41:11;101178.09;;;26.34;39.85
50854;BME280;44154;45.506;-122.806;2022-10-13T10:46:29;101179.78;;;26.40;39.32
50854;BME280;44154;45.506;-122.806;2022-10-13T10:49:02;101173.25;;;26.46;39.05
50854;BME280;44154;45.506;-122.806;2022-10-13T10:51:31;101166.16;;;26.50;38.41
50854;BME280;44154;45.506;-122.806;2022-10-13T10:54:18;101162.91;;;26.53;38.17
50854;BME280;44154;45.506;-122.806;2022-10-13T10:56:59;101163.50;;;26.55;38.09
50854;BME280;44154;45.506;-122.806;2022-10-13T11:05:00;101150.28;;;26.52;38.28
50854;BME280;44154;45.506;-122.806;2022-10-13T11:17:31;101128.38;;;26.30;39.73
50854;BME280;44154;45.506;-122.806;2022-10-13T11:19:58;101143.56;;;26.38;39.60
50854;BME280;44154;45.506;-122.806;2022-10-13T11:22:26;101141.44;;;26.45;39.12
50854;BME280;44154;45.506;-122.806;2022-10-13T11:27:56;101062.59;;;26.08;38.14
50854;BME280;44154;45.506;-122.806;2022-10-13T11:30:42;101135.47;;;26.53;37.90
50854;BME280;44154;45.506;-122.806;2022-10-13T11:35:56;101126.13;;;26.54;38.24
50854;BME280;44154;45.506;-122.806;2022-10-13T11:38:30;101135.00;;;26.61;37.87
50854;BME280;44154;45.506;-122.806;2022-10-13T11:41:24;101100.75;;;26.37;38.01
50854;BME280;44154;45.506;-122.806;2022-10-13T11:44:24;101141.56;;;26.60;37.46
50854;BME280;44154;45.506;-122.806;2022-10-13T11:47:35;101138.00;;;26.60;37.19
50854;BME280;44154;45.506;-122.806;2022-10-13T11:50:25;101135.50;;;26.58;37.39
50854;BME280;44154;45.506;-122.806;2022-10-13T11:55:53;101143.06;;;26.46;39.07
50854;BME280;44154;45.506;-122.806;2022-10-13T12:03:33;101139.41;;;26.62;37.91
50854;BME280;44154;45.506;-122.806;2022-10-13T12:06:03;101120.59;;;26.49;37.64
50854;BME280;44154;45.506;-122.806;2022-10-13T12:08:32;101140.53;;;26.66;38.07
50854;BME280;44154;45.506;-122.806;2022-10-13T12:11:00;101146.03;;;26.66;37.63
50854;BME280;44154;45.506;-122.806;2022-10-13T12:13:32;101142.16;;;26.67;37.76
50854;BME280;44154;45.506;-122.806;2022-10-13T12:16:04;101127.81;;;26.55;37.37
50854;BME280;44154;45.506;-122.806;2022-10-13T12:18:32;101148.19;;;26.64;37.27
50854;BME280;44154;45.506;-122.806;2022-10-13T12:23:34;101137.31;;;26.70;36.59
50854;BME280;44154;45.506;-122.806;2022-10-13T12:26:01;101138.28;;;26.63;37.44
50854;BME280;44154;45.506;-122.806;2022-10-13T12:31:28;101132.88;;;26.41;38.69
50854;BME280;44154;45.506;-122.806;2022-10-13T12:33:57;101140.94;;;26.53;38.79
50854;BME280;44154;45.506;-122.806;2022-10-13T12:36:32;101150.91;;;26.59;37.63
50854;BME280;44154;45.506;-122.806;2022-10-13T12:39:04;101154.53;;;26.65;37.42
50854;BME280;44154;45.506;-122.806;2022-10-13T12:41:37;101146.84;;;26.67;37.77
50854;BME280;44154;45.506;-122.806;2022-10-13T12:44:04;101154.03;;;26.68;37.50
50854;BME280;44154;45.506;-122.806;2022-10-13T12:46:45;101149.41;;;26.74;37.35
50854;BME280;44154;45.506;-122.806;2022-10-13T12:49:19;101151.91;;;26.75;37.27
50854;BME280;44154;45.506;-122.806;2022-10-13T12:51:47;101156.00;;;26.73;36.82
50854;BME280;44154;45.506;-122.806;2022-10-13T12:54:27;101131.06;;;26.52;36.80
50854;BME280;44154;45.506;-122.806;2022-10-13T12:56:57;101157.59;;;26.69;36.79
50854;BME280;44154;45.506;-122.806;2022-10-13T12:59:25;101166.88;;;26.67;36.77
50854;BME280;44154;45.506;-122.806;2022-10-13T13:01:58;101156.16;;;26.66;37.37
50854;BME280;44154;45.506;-122.806;2022-10-13T13:07:04;101157.22;;;26.60;37.66
50854;BME280;44154;45.506;-122.806;2022-10-13T13:09:36;101156.06;;;26.56;37.61
50854;BME280;44154;45.506;-122.806;2022-10-13T13:14:41;101158.53;;;26.52;37.94
50854;BME280;44154;45.506;-122.806;2022-10-13T13:17:11;101146.66;;;26.46;37.47
50854;BME280;44154;45.506;-122.806;2022-10-13T13:19:40;101053.88;;;25.89;37.52
50854;BME280;44154;45.506;-122.806;2022-10-13T13:22:07;101149.66;;;26.45;37.58
50854;BME280;44154;45.506;-122.806;2022-10-13T13:24:33;101141.09;;;26.36;37.66
50854;BME280;44154;45.506;-122.806;2022-10-13T13:29:52;101131.56;;;26.22;37.63
50854;BME280;44154;45.506;-122.806;2022-10-13T13:32:20;101160.03;;;26.38;37.43
50854;BME280;44154;45.506;-122.806;2022-10-13T13:34:47;101160.28;;;26.36;37.38
50854;BME280;44154;45.506;-122.806;2022-10-13T13:39:58;101151.03;;;26.20;37.64
50854;BME280;44154;45.506;-122.806;2022-10-13T13:42:26;101155.00;;;26.29;37.88
50854;BME280;44154;45.506;-122.806;2022-10-13T13:44:52;101130.59;;;26.06;37.39
50854;BME280;44154;45.506;-122.806;2022-10-13T13:47:23;101164.81;;;26.25;37.84
50854;BME280;44154;45.506;-122.806;2022-10-13T13:49:51;101168.09;;;26.22;37.63
50854;BME280;44154;45.506;-122.806;2022-10-13T13:52:20;101166.88;;;26.13;38.46
50854;BME280;44154;45.506;-122.806;2022-10-13T13:54:47;101158.97;;;25.94;38.79
50854;BME280;44154;45.506;-122.806;2022-10-13T13:57:14;101160.34;;;25.97;38.91
50854;BME280;44154;45.506;-122.806;2022-10-13T13:59:41;101163.06;;;26.14;38.57
50854;BME280;44154;45.506;-122.806;2022-10-13T14:02:13;101169.25;;;26.26;38.25
50854;BME280;44154;45.506;-122.806;2022-10-13T14:04:40;101165.97;;;26.29;37.92
50854;BME280;44154;45.506;-122.806;2022-10-13T14:07:06;101126.88;;;26.17;37.25
50854;BME280;44154;45.506;-122.806;2022-10-13T14:09:32;101169.97;;;26.44;37.12
50854;BME280;44154;45.506;-122.806;2022-10-13T14:11:58;101172.44;;;26.45;36.90